メインページ
METAR-TAF:

METAR-TAF

空港 :

トリポリ, リビア

Mitiga International Airport

緯度: 32-54N, 経度: 13-17E, 海抜: 11m

現時点の気象観測

当レポートは20分前の01:50(UTC)に作成
西の風 15kt
気温 16°C
湿度 68%
気圧 1018 hPa
視程: 7000m
高度2500ftの雲は散在している

METAR: HLLM 220150Z 28015KT 7000 SCT025 16/10 Q1018

時間: 04:10 (02:10 UTC)

予報

予報は20日の 17時(UTC)から 21日の 00時(UTC)まで有効
の風 20kt、最大30ktの突風を伴う
視程: 7000m
高度2500ftの雲は散在している
高度8000ftの千切れ雲あり
20日の 18時(UTC)から 21日の 06時(UTC)まで一時的に
視程: 5000m
高度2500ftの千切れ雲あり
高度7000ftの千切れ雲あり
にわか雨
21日の 12時(UTC)から 21日の 14時(UTC)まで徐々に
西/南西の風 20kt、最大30ktの突風を伴う

TAF: HLLM 201700 2018/2118 35020G30KT 7000 SCT025 BKN080 TEMPO 2018/2106 5000 SHRA BKN025 BKN070 BECMG 2112/2114 25020G30KT

4,000以上の空港の気象観測と天気予報(METAR報とTAF報)

利用可能な観測所は地図上に黄色い丸と赤い丸で示す。

丸の上にカーソルを重ねると観測所名を参照できる。

次にクリックすると気象観測と天気予報を参照できる。

マップの切り替え:黒色「×」印の緑ボタンをクリックして拡大、「-」印の緑ボタンをクリックして縮小、緑色の三角印をクリックして隣りの地図に切り替え


METAR-TAF: